sensor_id;sensor_type;location;lat;lon;timestamp;pressure;altitude;pressure_sealevel;temperature;humidity
70815;BME280;58428;49.478;10.986;2022-07-22T00:00:13;98698.91;;;21.05;52.73
70815;BME280;58428;49.478;10.986;2022-07-22T00:02:42;98699.31;;;21.04;53.89
70815;BME280;58428;49.478;10.986;2022-07-22T00:05:10;98702.06;;;21.01;53.22
70815;BME280;58428;49.478;10.986;2022-07-22T00:07:37;98698.81;;;20.88;53.92
70815;BME280;58428;49.478;10.986;2022-07-22T00:10:05;98702.00;;;20.87;53.95
70815;BME280;58428;49.478;10.986;2022-07-22T00:12:37;98703.91;;;20.79;55.76
70815;BME280;58428;49.478;10.986;2022-07-22T00:15:04;98715.69;;;20.80;54.24
70815;BME280;58428;49.478;10.986;2022-07-22T00:17:30;98710.56;;;20.75;54.99
70815;BME280;58428;49.478;10.986;2022-07-22T00:19:55;98720.22;;;20.55;56.20
70815;BME280;58428;49.478;10.986;2022-07-22T00:22:21;98712.97;;;20.30;56.37
70815;BME280;58428;49.478;10.986;2022-07-22T00:24:46;98718.00;;;20.18;57.78
70815;BME280;58428;49.478;10.986;2022-07-22T00:27:12;98710.97;;;20.24;56.19
70815;BME280;58428;49.478;10.986;2022-07-22T00:29:37;98708.97;;;20.17;56.54
70815;BME280;58428;49.478;10.986;2022-07-22T00:32:03;98712.94;;;20.23;56.59
70815;BME280;58428;49.478;10.986;2022-07-22T00:34:29;98708.22;;;20.24;56.41
70815;BME280;58428;49.478;10.986;2022-07-22T00:36:54;98699.88;;;20.10;58.45
70815;BME280;58428;49.478;10.986;2022-07-22T00:39:19;98702.66;;;20.13;56.58
70815;BME280;58428;49.478;10.986;2022-07-22T00:41:47;98707.03;;;20.21;56.34
70815;BME280;58428;49.478;10.986;2022-07-22T00:44:12;98708.94;;;20.14;57.28
70815;BME280;58428;49.478;10.986;2022-07-22T00:46:39;98707.34;;;20.13;57.00
70815;BME280;58428;49.478;10.986;2022-07-22T00:49:06;98714.38;;;20.10;57.67
70815;BME280;58428;49.478;10.986;2022-07-22T00:51:33;98710.91;;;20.17;56.39
70815;BME280;58428;49.478;10.986;2022-07-22T00:54:00;98707.81;;;20.22;57.03
70815;BME280;58428;49.478;10.986;2022-07-22T00:56:26;98709.38;;;20.19;57.52
70815;BME280;58428;49.478;10.986;2022-07-22T00:58:54;98708.16;;;20.17;56.88
70815;BME280;58428;49.478;10.986;2022-07-22T01:01:20;98713.63;;;20.13;57.21
70815;BME280;58428;49.478;10.986;2022-07-22T01:03:46;98710.13;;;20.16;56.80
70815;BME280;58428;49.478;10.986;2022-07-22T01:06:11;98707.38;;;20.16;56.86
70815;BME280;58428;49.478;10.986;2022-07-22T01:08:38;98717.63;;;20.19;56.59
70815;BME280;58428;49.478;10.986;2022-07-22T01:11:12;98710.47;;;20.11;57.67
70815;BME280;58428;49.478;10.986;2022-07-22T01:13:39;98711.16;;;19.98;58.99
70815;BME280;58428;49.478;10.986;2022-07-22T01:16:05;98705.19;;;19.89;58.27
70815;BME280;58428;49.478;10.986;2022-07-22T01:18:32;98707.03;;;19.78;58.79
70815;BME280;58428;49.478;10.986;2022-07-22T01:20:58;98702.66;;;19.74;58.58
70815;BME280;58428;49.478;10.986;2022-07-22T01:23:23;98706.91;;;19.68;58.91
70815;BME280;58428;49.478;10.986;2022-07-22T01:25:49;98702.16;;;19.61;59.55
70815;BME280;58428;49.478;10.986;2022-07-22T01:28:14;98699.72;;;19.56;59.42
70815;BME280;58428;49.478;10.986;2022-07-22T01:30:40;98707.53;;;19.51;59.57
70815;BME280;58428;49.478;10.986;2022-07-22T01:33:05;98702.69;;;19.41;60.06
70815;BME280;58428;49.478;10.986;2022-07-22T01:35:31;98701.47;;;19.35;61.19
70815;BME280;58428;49.478;10.986;2022-07-22T01:37:56;98709.31;;;19.37;60.93
70815;BME280;58428;49.478;10.986;2022-07-22T01:40:22;98709.22;;;19.26;62.48
70815;BME280;58428;49.478;10.986;2022-07-22T01:42:47;98710.78;;;19.27;60.60
70815;BME280;58428;49.478;10.986;2022-07-22T01:45:13;98709.25;;;19.30;60.48
70815;BME280;58428;49.478;10.986;2022-07-22T01:47:38;98703.72;;;19.26;60.85
70815;BME280;58428;49.478;10.986;2022-07-22T01:50:05;98707.19;;;19.23;60.94
70815;BME280;58428;49.478;10.986;2022-07-22T01:52:33;98702.91;;;19.22;60.80
70815;BME280;58428;49.478;10.986;2022-07-22T01:54:58;98711.81;;;19.16;60.95
70815;BME280;58428;49.478;10.986;2022-07-22T01:57:26;98718.13;;;19.17;61.07
70815;BME280;58428;49.478;10.986;2022-07-22T01:59:51;98715.69;;;19.12;61.47
70815;BME280;58428;49.478;10.986;2022-07-22T02:02:16;98718.53;;;19.18;62.04
70815;BME280;58428;49.478;10.986;2022-07-22T02:04:42;98715.41;;;19.20;61.33
70815;BME280;58428;49.478;10.986;2022-07-22T02:07:08;98713.53;;;19.27;60.68
70815;BME280;58428;49.478;10.986;2022-07-22T02:09:33;98713.97;;;19.33;60.14
70815;BME280;58428;49.478;10.986;2022-07-22T02:11:58;98709.28;;;19.33;60.10
70815;BME280;58428;49.478;10.986;2022-07-22T02:14:24;98713.97;;;19.33;60.15
70815;BME280;58428;49.478;10.986;2022-07-22T02:16:49;98709.28;;;19.33;60.49
70815;BME280;58428;49.478;10.986;2022-07-22T02:19:15;98713.63;;;19.34;60.21
70815;BME280;58428;49.478;10.986;2022-07-22T02:21:40;98710.88;;;19.34;60.34
70815;BME280;58428;49.478;10.986;2022-07-22T02:24:06;98715.16;;;19.32;60.55
70815;BME280;58428;49.478;10.986;2022-07-22T02:26:32;98727.28;;;19.31;59.94
70815;BME280;58428;49.478;10.986;2022-07-22T02:28:57;98712.75;;;19.27;60.04
70815;BME280;58428;49.478;10.986;2022-07-22T02:31:23;98714.66;;;19.23;60.54
70815;BME280;58428;49.478;10.986;2022-07-22T02:33:49;98713.09;;;19.25;60.43
70815;BME280;58428;49.478;10.986;2022-07-22T02:36:15;98707.19;;;19.23;60.23
70815;BME280;58428;49.478;10.986;2022-07-22T02:38:40;98711.03;;;19.16;60.99
70815;BME280;58428;49.478;10.986;2022-07-22T02:41:06;98705.53;;;19.16;60.75
70815;BME280;58428;49.478;10.986;2022-07-22T02:43:31;98706.31;;;19.16;60.76
70815;BME280;58428;49.478;10.986;2022-07-22T02:45:56;98707.91;;;19.17;60.66
70815;BME280;58428;49.478;10.986;2022-07-22T02:48:22;98707.81;;;19.10;61.22
70815;BME280;58428;49.478;10.986;2022-07-22T02:50:47;98705.50;;;19.12;61.24
70815;BME280;58428;49.478;10.986;2022-07-22T02:53:13;98705.91;;;19.11;61.20
70815;BME280;58428;49.478;10.986;2022-07-22T02:55:39;98715.19;;;19.03;62.86
70815;BME280;58428;49.478;10.986;2022-07-22T02:58:08;98713.19;;;19.00;61.74
70815;BME280;58428;49.478;10.986;2022-07-22T03:00:37;98712.47;;;19.03;61.87
70815;BME280;58428;49.478;10.986;2022-07-22T03:03:03;98715.56;;;19.01;62.05
70815;BME280;58428;49.478;10.986;2022-07-22T03:05:29;98718.63;;;18.96;62.65
70815;BME280;58428;49.478;10.986;2022-07-22T03:07:55;98719.31;;;18.90;62.98
70815;BME280;58428;49.478;10.986;2022-07-22T03:10:21;98728.25;;;18.87;62.39
70815;BME280;58428;49.478;10.986;2022-07-22T03:12:46;98719.34;;;18.93;63.48
70815;BME280;58428;49.478;10.986;2022-07-22T03:15:11;98715.09;;;18.96;62.11
70815;BME280;58428;49.478;10.986;2022-07-22T03:17:37;98715.09;;;18.96;61.94
70815;BME280;58428;49.478;10.986;2022-07-22T03:20:08;98714.19;;;18.88;62.30
70815;BME280;58428;49.478;10.986;2022-07-22T03:22:34;98709.13;;;18.90;62.10
70815;BME280;58428;49.478;10.986;2022-07-22T03:24:59;98718.88;;;18.88;62.23
70815;BME280;58428;49.478;10.986;2022-07-22T03:27:25;98722.81;;;18.90;62.29
70815;BME280;58428;49.478;10.986;2022-07-22T03:29:51;98720.00;;;18.83;63.58
70815;BME280;58428;49.478;10.986;2022-07-22T03:32:16;98720.75;;;18.80;62.83
70815;BME280;58428;49.478;10.986;2022-07-22T03:34:42;98721.06;;;18.76;63.88
70815;BME280;58428;49.478;10.986;2022-07-22T03:37:07;98726.56;;;18.76;64.64
70815;BME280;58428;49.478;10.986;2022-07-22T03:39:33;98727.75;;;18.78;62.97
70815;BME280;58428;49.478;10.986;2022-07-22T03:41:58;98725.38;;;18.77;63.31
70815;BME280;58428;49.478;10.986;2022-07-22T03:44:24;98725.81;;;18.79;64.57
70815;BME280;58428;49.478;10.986;2022-07-22T03:46:49;98726.81;;;18.67;64.82
70815;BME280;58428;49.478;10.986;2022-07-22T03:49:15;98730.34;;;18.68;65.72
70815;BME280;58428;49.478;10.986;2022-07-22T03:51:41;98732.09;;;18.53;65.82
70815;BME280;58428;49.478;10.986;2022-07-22T03:54:06;98733.31;;;18.56;64.45
70815;BME280;58428;49.478;10.986;2022-07-22T03:56:32;98727.09;;;18.59;63.95
70815;BME280;58428;49.478;10.986;2022-07-22T03:58:58;98734.63;;;18.65;64.02
70815;BME280;58428;49.478;10.986;2022-07-22T04:01:23;98738.63;;;18.71;63.71
70815;BME280;58428;49.478;10.986;2022-07-22T04:03:49;98740.63;;;18.74;63.58
70815;BME280;58428;49.478;10.986;2022-07-22T04:06:15;98737.72;;;18.64;64.13
70815;BME280;58428;49.478;10.986;2022-07-22T04:08:40;98739.31;;;18.65;64.92
70815;BME280;58428;49.478;10.986;2022-07-22T04:11:06;98731.72;;;18.55;65.14
70815;BME280;58428;49.478;10.986;2022-07-22T04:13:31;98732.25;;;18.64;65.70
70815;BME280;58428;49.478;10.986;2022-07-22T04:15:57;98742.91;;;18.69;64.15
70815;BME280;58428;49.478;10.986;2022-07-22T04:18:22;98740.25;;;18.76;64.06
70815;BME280;58428;49.478;10.986;2022-07-22T04:20:48;98730.91;;;18.80;63.67
70815;BME280;58428;49.478;10.986;2022-07-22T04:23:13;98733.41;;;18.63;64.78
70815;BME280;58428;49.478;10.986;2022-07-22T04:25:39;98732.00;;;18.72;64.33
70815;BME280;58428;49.478;10.986;2022-07-22T04:28:04;98730.81;;;18.73;64.75
70815;BME280;58428;49.478;10.986;2022-07-22T04:30:30;98732.88;;;18.80;64.69
70815;BME280;58428;49.478;10.986;2022-07-22T04:32:55;98723.06;;;18.79;64.28
70815;BME280;58428;49.478;10.986;2022-07-22T04:35:20;98731.81;;;18.87;64.29
70815;BME280;58428;49.478;10.986;2022-07-22T04:37:46;98720.59;;;18.96;64.25
70815;BME280;58428;49.478;10.986;2022-07-22T04:40:12;98721.06;;;19.01;64.01
70815;BME280;58428;49.478;10.986;2022-07-22T04:42:37;98717.53;;;19.04;63.63
70815;BME280;58428;49.478;10.986;2022-07-22T04:45:03;98722.31;;;19.07;63.85
70815;BME280;58428;49.478;10.986;2022-07-22T04:47:29;98723.00;;;19.01;64.82
70815;BME280;58428;49.478;10.986;2022-07-22T04:49:54;98723.38;;;18.99;64.56
70815;BME280;58428;49.478;10.986;2022-07-22T04:52:20;98722.50;;;18.95;65.00
70815;BME280;58428;49.478;10.986;2022-07-22T04:54:45;98732.25;;;18.93;64.90
70815;BME280;58428;49.478;10.986;2022-07-22T04:57:11;98717.72;;;18.89;65.33
70815;BME280;58428;49.478;10.986;2022-07-22T04:59:36;98724.38;;;18.88;65.64
70815;BME280;58428;49.478;10.986;2022-07-22T05:02:02;98724.41;;;18.91;65.31
70815;BME280;58428;49.478;10.986;2022-07-22T05:04:28;98722.78;;;18.87;65.79
70815;BME280;58428;49.478;10.986;2022-07-22T05:06:53;98723.59;;;18.87;65.60
70815;BME280;58428;49.478;10.986;2022-07-22T05:09:19;98733.75;;;18.87;66.31
70815;BME280;58428;49.478;10.986;2022-07-22T05:11:44;98722.03;;;18.90;65.83
70815;BME280;58428;49.478;10.986;2022-07-22T05:14:09;98723.31;;;18.96;66.22
70815;BME280;58428;49.478;10.986;2022-07-22T05:16:36;98721.47;;;19.03;65.34
70815;BME280;58428;49.478;10.986;2022-07-22T05:19:03;98723.91;;;19.12;65.33
70815;BME280;58428;49.478;10.986;2022-07-22T05:21:28;98724.75;;;19.16;65.15
70815;BME280;58428;49.478;10.986;2022-07-22T05:23:53;98721.53;;;19.10;65.96
70815;BME280;58428;49.478;10.986;2022-07-22T05:26:19;98723.13;;;19.11;66.00
70815;BME280;58428;49.478;10.986;2022-07-22T05:28:44;98723.66;;;19.20;66.37
70815;BME280;58428;49.478;10.986;2022-07-22T05:31:09;98721.34;;;19.25;66.13
70815;BME280;58428;49.478;10.986;2022-07-22T05:53:52;98713.09;;;19.94;64.90
70815;BME280;58428;49.478;10.986;2022-07-22T05:56:17;98717.47;;;20.02;64.76
70815;BME280;58428;49.478;10.986;2022-07-22T05:58:43;98719.84;;;20.03;64.77
70815;BME280;58428;49.478;10.986;2022-07-22T06:01:12;98726.91;;;20.04;65.07
70815;BME280;58428;49.478;10.986;2022-07-22T06:03:39;98722.88;;;19.95;65.36
70815;BME280;58428;49.478;10.986;2022-07-22T06:06:05;98724.13;;;20.01;64.98
70815;BME280;58428;49.478;10.986;2022-07-22T06:08:34;98721.34;;;19.97;65.43
70815;BME280;58428;49.478;10.986;2022-07-22T06:10:59;98733.88;;;19.95;66.10
70815;BME280;58428;49.478;10.986;2022-07-22T06:13:25;98732.03;;;20.06;65.47
70815;BME280;58428;49.478;10.986;2022-07-22T06:15:51;98732.09;;;20.16;65.12
70815;BME280;58428;49.478;10.986;2022-07-22T06:18:17;98725.16;;;20.29;64.79
70815;BME280;58428;49.478;10.986;2022-07-22T06:20:42;98733.47;;;20.39;64.69
70815;BME280;58428;49.478;10.986;2022-07-22T06:23:08;98737.41;;;20.38;65.04
70815;BME280;58428;49.478;10.986;2022-07-22T06:25:34;98729.16;;;20.38;64.48
70815;BME280;58428;49.478;10.986;2022-07-22T06:27:59;98726.41;;;20.42;64.50
70815;BME280;58428;49.478;10.986;2022-07-22T06:30:24;98725.66;;;20.45;64.40
70815;BME280;58428;49.478;10.986;2022-07-22T06:32:51;98727.72;;;20.58;64.38
70815;BME280;58428;49.478;10.986;2022-07-22T06:35:16;98731.75;;;20.74;64.02
70815;BME280;58428;49.478;10.986;2022-07-22T06:37:42;98739.34;;;20.91;63.27
70815;BME280;58428;49.478;10.986;2022-07-22T06:40:08;98733.47;;;20.93;63.48
70815;BME280;58428;49.478;10.986;2022-07-22T06:42:33;98725.19;;;20.96;63.33
70815;BME280;58428;49.478;10.986;2022-07-22T06:44:58;98731.53;;;21.03;63.25
70815;BME280;58428;49.478;10.986;2022-07-22T06:47:24;98734.34;;;21.17;62.88
70815;BME280;58428;49.478;10.986;2022-07-22T06:49:49;98741.50;;;21.32;62.61
70815;BME280;58428;49.478;10.986;2022-07-22T06:52:14;98732.13;;;21.43;62.10
70815;BME280;58428;49.478;10.986;2022-07-22T06:54:40;98732.97;;;21.54;62.09
70815;BME280;58428;49.478;10.986;2022-07-22T06:57:05;98728.63;;;21.64;61.56
70815;BME280;58428;49.478;10.986;2022-07-22T06:59:31;98729.44;;;21.68;61.49
70815;BME280;58428;49.478;10.986;2022-07-22T07:01:56;98725.13;;;21.74;61.13
70815;BME280;58428;49.478;10.986;2022-07-22T07:04:22;98729.88;;;21.94;60.78
70815;BME280;58428;49.478;10.986;2022-07-22T07:06:47;98726.34;;;22.00;60.52
70815;BME280;58428;49.478;10.986;2022-07-22T07:09:12;98723.59;;;22.07;60.44
70815;BME280;58428;49.478;10.986;2022-07-22T07:11:38;98722.44;;;22.15;60.03
70815;BME280;58428;49.478;10.986;2022-07-22T07:14:03;98725.19;;;22.22;59.68
70815;BME280;58428;49.478;10.986;2022-07-22T07:16:29;98724.81;;;22.27;59.59
70815;BME280;58428;49.478;10.986;2022-07-22T07:18:54;98720.47;;;22.36;59.43
70815;BME280;58428;49.478;10.986;2022-07-22T07:21:20;98722.44;;;22.36;58.82
70815;BME280;58428;49.478;10.986;2022-07-22T07:23:46;98714.56;;;22.38;59.16
70815;BME280;58428;49.478;10.986;2022-07-22T07:26:11;98711.00;;;22.41;58.65
70815;BME280;58428;49.478;10.986;2022-07-22T07:28:36;98711.41;;;22.46;59.11
70815;BME280;58428;49.478;10.986;2022-07-22T07:31:02;98714.53;;;22.62;58.88
70815;BME280;58428;49.478;10.986;2022-07-22T07:33:27;98701.91;;;22.75;58.39
70815;BME280;58428;49.478;10.986;2022-07-22T07:35:53;98704.25;;;22.90;58.27
70815;BME280;58428;49.478;10.986;2022-07-22T07:38:18;98696.31;;;22.99;57.93
70815;BME280;58428;49.478;10.986;2022-07-22T07:40:44;98693.53;;;23.09;57.52
70815;BME280;58428;49.478;10.986;2022-07-22T07:43:09;98685.56;;;23.25;57.04
70815;BME280;58428;49.478;10.986;2022-07-22T07:45:36;98690.19;;;23.42;56.41
70815;BME280;58428;49.478;10.986;2022-07-22T07:48:02;98688.97;;;23.57;56.61
70815;BME280;58428;49.478;10.986;2022-07-22T07:50:28;98681.13;;;23.48;55.47
70815;BME280;58428;49.478;10.986;2022-07-22T07:52:53;98680.28;;;23.58;55.77
70815;BME280;58428;49.478;10.986;2022-07-22T07:55:20;98684.94;;;23.75;55.62
70815;BME280;58428;49.478;10.986;2022-07-22T07:57:46;98677.78;;;23.81;55.08
70815;BME280;58428;49.478;10.986;2022-07-22T08:00:14;98676.28;;;23.66;54.98
70815;BME280;58428;49.478;10.986;2022-07-22T08:02:40;98681.81;;;23.66;54.98
70815;BME280;58428;49.478;10.986;2022-07-22T08:05:07;98678.19;;;23.79;54.89
70815;BME280;58428;49.478;10.986;2022-07-22T08:07:33;98678.09;;;23.90;54.77
70815;BME280;58428;49.478;10.986;2022-07-22T08:09:58;98683.50;;;24.03;54.73
70815;BME280;58428;49.478;10.986;2022-07-22T08:12:24;98681.06;;;24.16;54.29
70815;BME280;58428;49.478;10.986;2022-07-22T08:14:49;98679.38;;;24.29;54.17
70815;BME280;58428;49.478;10.986;2022-07-22T08:17:14;98687.78;;;24.11;53.49
70815;BME280;58428;49.478;10.986;2022-07-22T08:19:40;98676.69;;;24.18;53.66
70815;BME280;58428;49.478;10.986;2022-07-22T08:22:05;98673.47;;;24.27;53.90
70815;BME280;58428;49.478;10.986;2022-07-22T08:24:30;98668.66;;;24.34;53.14
70815;BME280;58428;49.478;10.986;2022-07-22T08:26:56;98667.00;;;24.40;52.74
70815;BME280;58428;49.478;10.986;2022-07-22T08:29:21;98666.53;;;24.48;53.29
70815;BME280;58428;49.478;10.986;2022-07-22T08:31:47;98664.44;;;24.59;52.45
70815;BME280;58428;49.478;10.986;2022-07-22T08:34:12;98665.16;;;24.67;52.51
70815;BME280;58428;49.478;10.986;2022-07-22T08:36:38;98663.38;;;24.83;52.60
70815;BME280;58428;49.478;10.986;2022-07-22T08:39:04;98666.78;;;25.01;52.19
70815;BME280;58428;49.478;10.986;2022-07-22T08:41:34;98661.06;;;25.15;51.75
70815;BME280;58428;49.478;10.986;2022-07-22T08:44:02;98655.38;;;25.25;51.53
70815;BME280;58428;49.478;10.986;2022-07-22T08:46:28;98648.50;;;25.36;50.82
70815;BME280;58428;49.478;10.986;2022-07-22T08:48:53;98654.47;;;25.35;50.20
70815;BME280;58428;49.478;10.986;2022-07-22T08:51:20;98649.59;;;25.42;50.63
70815;BME280;58428;49.478;10.986;2022-07-22T08:53:46;98641.38;;;25.35;50.17
70815;BME280;58428;49.478;10.986;2022-07-22T08:56:17;98645.41;;;25.31;49.88
70815;BME280;58428;49.478;10.986;2022-07-22T08:58:42;98643.13;;;25.26;49.56
70815;BME280;58428;49.478;10.986;2022-07-22T09:01:13;98633.06;;;25.35;49.88
70815;BME280;58428;49.478;10.986;2022-07-22T09:03:46;98632.50;;;25.47;49.17
70815;BME280;58428;49.478;10.986;2022-07-22T09:06:12;98637.44;;;25.62;49.66
70815;BME280;58428;49.478;10.986;2022-07-22T09:08:54;98629.34;;;25.75;48.65
70815;BME280;58428;49.478;10.986;2022-07-22T09:11:22;98630.13;;;25.75;49.33
70815;BME280;58428;49.478;10.986;2022-07-22T09:13:48;98624.41;;;25.86;49.02
70815;BME280;58428;49.478;10.986;2022-07-22T09:16:14;98633.91;;;25.88;48.17
70815;BME280;58428;49.478;10.986;2022-07-22T09:18:51;98623.09;;;25.71;48.14
70815;BME280;58428;49.478;10.986;2022-07-22T09:21:20;98624.50;;;25.82;48.12
70815;BME280;58428;49.478;10.986;2022-07-22T09:23:46;98633.31;;;26.00;46.87
70815;BME280;58428;49.478;10.986;2022-07-22T09:28:57;98628.63;;;26.20;45.42
70815;BME280;58428;49.478;10.986;2022-07-22T09:31:27;98630.28;;;26.14;46.35
70815;BME280;58428;49.478;10.986;2022-07-22T09:33:52;98625.34;;;26.25;46.21
70815;BME280;58428;49.478;10.986;2022-07-22T09:36:19;98623.19;;;26.35;46.38
70815;BME280;58428;49.478;10.986;2022-07-22T09:38:45;98615.66;;;26.55;46.55
70815;BME280;58428;49.478;10.986;2022-07-22T09:41:10;98618.97;;;26.69;45.58
70815;BME280;58428;49.478;10.986;2022-07-22T09:43:36;98618.41;;;26.78;45.82
70815;BME280;58428;49.478;10.986;2022-07-22T09:46:02;98617.78;;;26.90;45.55
70815;BME280;58428;49.478;10.986;2022-07-22T09:48:29;98620.78;;;26.99;45.51
70815;BME280;58428;49.478;10.986;2022-07-22T09:50:56;98607.59;;;27.02;45.10
70815;BME280;58428;49.478;10.986;2022-07-22T09:53:25;98612.44;;;27.18;44.64
70815;BME280;58428;49.478;10.986;2022-07-22T09:55:53;98614.13;;;27.31;44.59
70815;BME280;58428;49.478;10.986;2022-07-22T09:58:18;98613.09;;;27.41;44.10
70815;BME280;58428;49.478;10.986;2022-07-22T10:00:44;98608.09;;;27.52;44.75
70815;BME280;58428;49.478;10.986;2022-07-22T10:03:36;98610.25;;;27.44;42.93
70815;BME280;58428;49.478;10.986;2022-07-22T10:06:04;98609.34;;;27.32;43.59
70815;BME280;58428;49.478;10.986;2022-07-22T10:08:31;98613.59;;;27.36;43.23
70815;BME280;58428;49.478;10.986;2022-07-22T10:11:03;98601.41;;;27.49;43.41
70815;BME280;58428;49.478;10.986;2022-07-22T10:13:29;98601.78;;;27.67;43.39
70815;BME280;58428;49.478;10.986;2022-07-22T10:15:56;98596.81;;;27.75;43.26
70815;BME280;58428;49.478;10.986;2022-07-22T10:18:23;98600.91;;;27.86;43.12
70815;BME280;58428;49.478;10.986;2022-07-22T10:21:06;98595.16;;;27.77;41.48
70815;BME280;58428;49.478;10.986;2022-07-22T10:23:32;98592.16;;;27.87;42.19
70815;BME280;58428;49.478;10.986;2022-07-22T10:26:02;98588.84;;;27.61;42.12
70815;BME280;58428;49.478;10.986;2022-07-22T10:28:33;98586.47;;;27.59;42.05
70815;BME280;58428;49.478;10.986;2022-07-22T10:31:20;98575.00;;;27.57;41.67
70815;BME280;58428;49.478;10.986;2022-07-22T10:33:50;98580.16;;;27.75;42.25
70815;BME280;58428;49.478;10.986;2022-07-22T10:36:30;98576.75;;;27.83;41.64
70815;BME280;58428;49.478;10.986;2022-07-22T10:39:11;98581.44;;;27.86;41.24
70815;BME280;58428;49.478;10.986;2022-07-22T10:41:39;98572.66;;;27.72;41.74
70815;BME280;58428;49.478;10.986;2022-07-22T10:44:05;98564.00;;;28.01;41.25
70815;BME280;58428;49.478;10.986;2022-07-22T10:46:51;98568.84;;;28.13;41.02
70815;BME280;58428;49.478;10.986;2022-07-22T10:49:19;98566.91;;;28.26;41.72
70815;BME280;58428;49.478;10.986;2022-07-22T10:52:08;98566.16;;;28.53;40.59
70815;BME280;58428;49.478;10.986;2022-07-22T10:54:34;98560.66;;;28.78;40.76
70815;BME280;58428;49.478;10.986;2022-07-22T10:57:30;98561.31;;;28.98;40.06
70815;BME280;58428;49.478;10.986;2022-07-22T10:59:56;98554.72;;;29.04;39.86
70815;BME280;58428;49.478;10.986;2022-07-22T11:02:25;98545.78;;;28.97;39.17
70815;BME280;58428;49.478;10.986;2022-07-22T11:04:51;98552.59;;;29.08;40.36
70815;BME280;58428;49.478;10.986;2022-07-22T11:07:20;98547.75;;;29.25;39.62
70815;BME280;58428;49.478;10.986;2022-07-22T11:09:46;98533.81;;;29.37;39.58
70815;BME280;58428;49.478;10.986;2022-07-22T11:12:14;98538.72;;;29.33;37.67
70815;BME280;58428;49.478;10.986;2022-07-22T11:14:39;98537.41;;;29.25;38.62
70815;BME280;58428;49.478;10.986;2022-07-22T11:17:12;98531.16;;;29.21;38.71
70815;BME280;58428;49.478;10.986;2022-07-22T11:19:41;98533.00;;;29.12;38.60
70815;BME280;58428;49.478;10.986;2022-07-22T11:22:09;98527.41;;;28.99;38.04
70815;BME280;58428;49.478;10.986;2022-07-22T11:24:35;98523.53;;;29.09;39.19
70815;BME280;58428;49.478;10.986;2022-07-22T11:27:04;98519.53;;;29.23;38.56
70815;BME280;58428;49.478;10.986;2022-07-22T11:29:36;98514.31;;;29.37;38.13
70815;BME280;58428;49.478;10.986;2022-07-22T11:32:05;98521.41;;;29.13;37.44
70815;BME280;58428;49.478;10.986;2022-07-22T11:34:31;98512.16;;;29.28;38.37
70815;BME280;58428;49.478;10.986;2022-07-22T11:36:57;98514.72;;;29.48;38.42
70815;BME280;58428;49.478;10.986;2022-07-22T11:39:25;98512.03;;;29.69;38.15
70815;BME280;58428;49.478;10.986;2022-07-22T11:41:52;98509.00;;;29.88;38.14
70815;BME280;58428;49.478;10.986;2022-07-22T11:44:19;98498.72;;;29.98;37.16
70815;BME280;58428;49.478;10.986;2022-07-22T11:46:54;98502.38;;;30.07;37.01
70815;BME280;58428;49.478;10.986;2022-07-22T11:49:32;98490.88;;;30.05;36.35
70815;BME280;58428;49.478;10.986;2022-07-22T11:52:03;98483.91;;;29.88;36.24
70815;BME280;58428;49.478;10.986;2022-07-22T11:54:29;98485.19;;;29.96;36.26
70815;BME280;58428;49.478;10.986;2022-07-22T11:56:54;98488.47;;;29.95;36.28
70815;BME280;58428;49.478;10.986;2022-07-22T11:59:21;98485.28;;;30.05;36.88
70815;BME280;58428;49.478;10.986;2022-07-22T12:01:48;98470.72;;;30.22;36.63
70815;BME280;58428;49.478;10.986;2022-07-22T12:04:22;98476.97;;;30.26;36.73
70815;BME280;58428;49.478;10.986;2022-07-22T12:06:48;98478.66;;;30.24;36.05
70815;BME280;58428;49.478;10.986;2022-07-22T12:09:22;98470.63;;;30.13;35.39
70815;BME280;58428;49.478;10.986;2022-07-22T12:11:50;98474.28;;;30.23;35.66
70815;BME280;58428;49.478;10.986;2022-07-22T12:14:24;98463.03;;;30.26;35.54
70815;BME280;58428;49.478;10.986;2022-07-22T12:19:31;98456.66;;;30.47;35.68
70815;BME280;58428;49.478;10.986;2022-07-22T12:22:00;98448.19;;;30.59;35.48
70815;BME280;58428;49.478;10.986;2022-07-22T12:26:59;98439.53;;;30.87;34.91
70815;BME280;58428;49.478;10.986;2022-07-22T12:29:28;98430.88;;;30.94;34.46
70815;BME280;58428;49.478;10.986;2022-07-22T12:32:07;98427.50;;;30.99;33.65
70815;BME280;58428;49.478;10.986;2022-07-22T12:34:40;98430.88;;;30.73;32.99
70815;BME280;58428;49.478;10.986;2022-07-22T12:37:22;98424.31;;;30.58;34.36
70815;BME280;58428;49.478;10.986;2022-07-22T12:42:27;98413.75;;;30.83;34.63
70815;BME280;58428;49.478;10.986;2022-07-22T12:45:15;98422.66;;;31.00;34.36
70815;BME280;58428;49.478;10.986;2022-07-22T12:47:52;98418.72;;;31.18;34.09
70815;BME280;58428;49.478;10.986;2022-07-22T12:55:30;98410.47;;;31.24;33.39
70815;BME280;58428;49.478;10.986;2022-07-22T12:57:55;98406.44;;;31.25;33.17
70815;BME280;58428;49.478;10.986;2022-07-22T13:00:23;98401.25;;;31.06;32.37
70815;BME280;58428;49.478;10.986;2022-07-22T13:02:49;98398.16;;;31.04;32.80
70815;BME280;58428;49.478;10.986;2022-07-22T13:05:15;98400.34;;;31.17;33.13
70815;BME280;58428;49.478;10.986;2022-07-22T13:07:41;98396.53;;;31.33;32.93
70815;BME280;58428;49.478;10.986;2022-07-22T13:10:07;98394.41;;;31.46;33.15
70815;BME280;58428;49.478;10.986;2022-07-22T13:12:33;98399.84;;;31.40;33.19
70815;BME280;58428;49.478;10.986;2022-07-22T13:14:58;98391.59;;;31.37;33.18
70815;BME280;58428;49.478;10.986;2022-07-22T13:17:24;98391.50;;;31.19;32.15
70815;BME280;58428;49.478;10.986;2022-07-22T13:19:49;98394.09;;;31.05;32.99
70815;BME280;58428;49.478;10.986;2022-07-22T13:22:14;98398.63;;;31.11;32.39
70815;BME280;58428;49.478;10.986;2022-07-22T13:24:39;98398.59;;;30.93;32.95